sensor_id;sensor_type;location;lat;lon;timestamp;pressure;altitude;pressure_sealevel;temperature;humidity
39443;BME280;25147;52.142;9.960;2023-07-31T00:00:36;99949.84;;;15.37;100.00
39443;BME280;25147;52.142;9.960;2023-07-31T00:03:05;99845.22;;;14.97;100.00
39443;BME280;25147;52.142;9.960;2023-07-31T00:05:33;100034.25;;;16.18;100.00
39443;BME280;25147;52.142;9.960;2023-07-31T00:08:00;99871.84;;;15.11;100.00
39443;BME280;25147;52.142;9.960;2023-07-31T00:10:30;100006.66;;;16.06;100.00
39443;BME280;25147;52.142;9.960;2023-07-31T00:12:59;99987.66;;;15.98;100.00
39443;BME280;25147;52.142;9.960;2023-07-31T00:15:26;100029.91;;;16.17;100.00
39443;BME280;25147;52.142;9.960;2023-07-31T00:17:53;100035.97;;;16.19;100.00
39443;BME280;25147;52.142;9.960;2023-07-31T00:20:19;100023.69;;;16.18;100.00
39443;BME280;25147;52.142;9.960;2023-07-31T00:22:46;99987.53;;;15.80;100.00
39443;BME280;25147;52.142;9.960;2023-07-31T00:25:16;100028.91;;;16.19;100.00
39443;BME280;25147;52.142;9.960;2023-07-31T00:27:46;99859.63;;;15.29;100.00
39443;BME280;25147;52.142;9.960;2023-07-31T00:30:18;99740.75;;;14.55;100.00
39443;BME280;25147;52.142;9.960;2023-07-31T00:32:59;99860.03;;;15.20;100.00
39443;BME280;25147;52.142;9.960;2023-07-31T00:35:26;99867.94;;;15.20;100.00
39443;BME280;25147;52.142;9.960;2023-07-31T00:37:58;99965.66;;;15.97;100.00
39443;BME280;25147;52.142;9.960;2023-07-31T00:40:28;99612.91;;;13.65;100.00
39443;BME280;25147;52.142;9.960;2023-07-31T00:43:04;99671.44;;;14.13;100.00
39443;BME280;25147;52.142;9.960;2023-07-31T00:45:44;99990.41;;;16.14;100.00
39443;BME280;25147;52.142;9.960;2023-07-31T00:48:11;100005.84;;;16.23;100.00
39443;BME280;25147;52.142;9.960;2023-07-31T00:50:42;99998.84;;;16.22;100.00
39443;BME280;25147;52.142;9.960;2023-07-31T00:53:10;99750.06;;;14.63;100.00
39443;BME280;25147;52.142;9.960;2023-07-31T00:55:37;99731.53;;;14.44;100.00
39443;BME280;25147;52.142;9.960;2023-07-31T00:58:04;100008.34;;;16.26;100.00
39443;BME280;25147;52.142;9.960;2023-07-31T01:00:31;99999.56;;;16.25;100.00
39443;BME280;25147;52.142;9.960;2023-07-31T01:03:05;100012.84;;;16.24;100.00
39443;BME280;25147;52.142;9.960;2023-07-31T01:05:43;99906.19;;;15.70;100.00
39443;BME280;25147;52.142;9.960;2023-07-31T01:08:24;99791.75;;;14.74;100.00
39443;BME280;25147;52.142;9.960;2023-07-31T01:10:56;99901.88;;;15.48;100.00
39443;BME280;25147;52.142;9.960;2023-07-31T01:13:36;100010.19;;;16.24;100.00
39443;BME280;25147;52.142;9.960;2023-07-31T01:16:10;99760.38;;;14.89;100.00
39443;BME280;25147;52.142;9.960;2023-07-31T01:18:45;100023.41;;;16.24;100.00
39443;BME280;25147;52.142;9.960;2023-07-31T01:21:23;99979.50;;;16.21;100.00
39443;BME280;25147;52.142;9.960;2023-07-31T01:24:09;99843.59;;;15.34;100.00
39443;BME280;25147;52.142;9.960;2023-07-31T01:26:44;99916.94;;;15.65;100.00
39443;BME280;25147;52.142;9.960;2023-07-31T01:29:17;99975.28;;;16.17;100.00
39443;BME280;25147;52.142;9.960;2023-07-31T01:31:48;99823.78;;;15.25;100.00
39443;BME280;25147;52.142;9.960;2023-07-31T01:34:17;99972.88;;;16.13;100.00
39443;BME280;25147;52.142;9.960;2023-07-31T01:36:44;99824.50;;;15.29;100.00
39443;BME280;25147;52.142;9.960;2023-07-31T01:39:11;99960.09;;;16.03;100.00
39443;BME280;25147;52.142;9.960;2023-07-31T01:41:37;99842.09;;;15.28;100.00
39443;BME280;25147;52.142;9.960;2023-07-31T01:44:06;99953.47;;;15.95;100.00
39443;BME280;25147;52.142;9.960;2023-07-31T01:46:33;99862.78;;;15.37;100.00
39443;BME280;25147;52.142;9.960;2023-07-31T01:49:00;99953.88;;;15.86;100.00
39443;BME280;25147;52.142;9.960;2023-07-31T01:51:27;99881.75;;;15.45;100.00
39443;BME280;25147;52.142;9.960;2023-07-31T01:53:54;99940.97;;;15.79;100.00
39443;BME280;25147;52.142;9.960;2023-07-31T01:56:20;99948.09;;;15.77;100.00
39443;BME280;25147;52.142;9.960;2023-07-31T01:58:47;99912.44;;;15.67;100.00
39443;BME280;25147;52.142;9.960;2023-07-31T02:01:16;99761.81;;;14.75;100.00
39443;BME280;25147;52.142;9.960;2023-07-31T02:03:43;99644.66;;;14.03;100.00
39443;BME280;25147;52.142;9.960;2023-07-31T02:06:10;99936.91;;;15.71;100.00
39443;BME280;25147;52.142;9.960;2023-07-31T02:08:36;99923.72;;;15.71;100.00
39443;BME280;25147;52.142;9.960;2023-07-31T02:11:03;99589.78;;;13.74;100.00
39443;BME280;25147;52.142;9.960;2023-07-31T02:13:30;99933.19;;;15.56;100.00
39443;BME280;25147;52.142;9.960;2023-07-31T02:15:57;99831.03;;;15.20;100.00
39443;BME280;25147;52.142;9.960;2023-07-31T02:18:25;99749.72;;;14.71;100.00
39443;BME280;25147;52.142;9.960;2023-07-31T02:20:52;99904.53;;;15.67;100.00
39443;BME280;25147;52.142;9.960;2023-07-31T02:23:19;99900.19;;;15.66;100.00
39443;BME280;25147;52.142;9.960;2023-07-31T02:25:46;99903.53;;;15.70;100.00
39443;BME280;25147;52.142;9.960;2023-07-31T02:28:13;99808.56;;;15.11;100.00
39443;BME280;25147;52.142;9.960;2023-07-31T02:30:40;99814.94;;;15.26;100.00
39443;BME280;25147;52.142;9.960;2023-07-31T02:33:10;99904.09;;;15.78;100.00
39443;BME280;25147;52.142;9.960;2023-07-31T02:35:38;99918.13;;;15.78;100.00
39443;BME280;25147;52.142;9.960;2023-07-31T02:38:05;99665.50;;;14.29;100.00
39443;BME280;25147;52.142;9.960;2023-07-31T02:40:32;99784.91;;;15.10;100.00
39443;BME280;25147;52.142;9.960;2023-07-31T02:42:59;99899.81;;;15.75;100.00
39443;BME280;25147;52.142;9.960;2023-07-31T02:45:26;99789.09;;;14.95;100.00
39443;BME280;25147;52.142;9.960;2023-07-31T02:47:52;99507.91;;;13.40;100.00
39443;BME280;25147;52.142;9.960;2023-07-31T02:50:19;99888.50;;;15.72;100.00
39443;BME280;25147;52.142;9.960;2023-07-31T02:52:47;99892.91;;;15.71;100.00
39443;BME280;25147;52.142;9.960;2023-07-31T02:55:14;99883.56;;;15.64;100.00
39443;BME280;25147;52.142;9.960;2023-07-31T02:57:41;99880.53;;;15.73;100.00
39443;BME280;25147;52.142;9.960;2023-07-31T03:00:08;99881.34;;;15.75;100.00
39443;BME280;25147;52.142;9.960;2023-07-31T03:02:35;99885.66;;;15.76;100.00
39443;BME280;25147;52.142;9.960;2023-07-31T03:05:03;99749.03;;;14.87;100.00
39443;BME280;25147;52.142;9.960;2023-07-31T03:07:30;99748.09;;;14.88;100.00
39443;BME280;25147;52.142;9.960;2023-07-31T03:09:59;99896.22;;;15.76;100.00
39443;BME280;25147;52.142;9.960;2023-07-31T03:12:26;99666.81;;;14.39;100.00
39443;BME280;25147;52.142;9.960;2023-07-31T03:14:53;99890.94;;;15.76;100.00
39443;BME280;25147;52.142;9.960;2023-07-31T03:17:19;99852.47;;;15.52;100.00
39443;BME280;25147;52.142;9.960;2023-07-31T03:19:46;99810.88;;;15.19;100.00
39443;BME280;25147;52.142;9.960;2023-07-31T03:22:13;99807.44;;;15.17;100.00
39443;BME280;25147;52.142;9.960;2023-07-31T03:24:40;99652.22;;;14.11;100.00
39443;BME280;25147;52.142;9.960;2023-07-31T03:27:08;99898.69;;;15.60;100.00
39443;BME280;25147;52.142;9.960;2023-07-31T03:29:35;99888.84;;;15.64;100.00
39443;BME280;25147;52.142;9.960;2023-07-31T03:32:03;99904.75;;;15.62;100.00
39443;BME280;25147;52.142;9.960;2023-07-31T03:34:29;99794.81;;;15.04;100.00
39443;BME280;25147;52.142;9.960;2023-07-31T03:36:57;99732.97;;;14.52;100.00
39443;BME280;25147;52.142;9.960;2023-07-31T03:39:24;99608.75;;;13.82;100.00
39443;BME280;25147;52.142;9.960;2023-07-31T03:41:51;99916.22;;;15.61;100.00
39443;BME280;25147;52.142;9.960;2023-07-31T03:44:19;99889.34;;;15.53;100.00
39443;BME280;25147;52.142;9.960;2023-07-31T03:46:46;99750.31;;;14.78;100.00
39443;BME280;25147;52.142;9.960;2023-07-31T03:49:13;99899.53;;;15.61;100.00
39443;BME280;25147;52.142;9.960;2023-07-31T03:51:40;99768.63;;;14.81;100.00
39443;BME280;25147;52.142;9.960;2023-07-31T03:54:07;99876.69;;;15.41;100.00
39443;BME280;25147;52.142;9.960;2023-07-31T03:56:34;99682.50;;;14.21;100.00
39443;BME280;25147;52.142;9.960;2023-07-31T03:59:01;99890.97;;;15.56;100.00
39443;BME280;25147;52.142;9.960;2023-07-31T04:01:29;99834.66;;;15.17;100.00
39443;BME280;25147;52.142;9.960;2023-07-31T04:03:56;99529.72;;;13.00;100.00
39443;BME280;25147;52.142;9.960;2023-07-31T04:06:23;99900.00;;;15.50;100.00
39443;BME280;25147;52.142;9.960;2023-07-31T04:08:50;99896.59;;;15.48;100.00
39443;BME280;25147;52.142;9.960;2023-07-31T04:11:16;99834.38;;;15.04;100.00
39443;BME280;25147;52.142;9.960;2023-07-31T04:13:43;99891.88;;;15.36;100.00
39443;BME280;25147;52.142;9.960;2023-07-31T04:16:10;99874.16;;;15.19;100.00
39443;BME280;25147;52.142;9.960;2023-07-31T04:18:38;99840.59;;;15.02;100.00
39443;BME280;25147;52.142;9.960;2023-07-31T04:21:05;99664.06;;;14.01;100.00
39443;BME280;25147;52.142;9.960;2023-07-31T04:23:32;99480.06;;;12.72;100.00
39443;BME280;25147;52.142;9.960;2023-07-31T04:25:59;99797.75;;;14.78;100.00
39443;BME280;25147;52.142;9.960;2023-07-31T04:28:26;99882.25;;;15.35;100.00
39443;BME280;25147;52.142;9.960;2023-07-31T04:30:53;99877.94;;;15.32;100.00
39443;BME280;25147;52.142;9.960;2023-07-31T04:33:20;99807.34;;;14.79;100.00
39443;BME280;25147;52.142;9.960;2023-07-31T04:35:53;99706.41;;;14.17;100.00
39443;BME280;25147;52.142;9.960;2023-07-31T04:38:20;99448.09;;;12.62;100.00
39443;BME280;25147;52.142;9.960;2023-07-31T04:40:48;99869.47;;;15.25;100.00
39443;BME280;25147;52.142;9.960;2023-07-31T04:43:14;99887.56;;;15.14;100.00
39443;BME280;25147;52.142;9.960;2023-07-31T04:45:42;99491.00;;;12.83;100.00
39443;BME280;25147;52.142;9.960;2023-07-31T04:48:09;99819.63;;;14.80;100.00
39443;BME280;25147;52.142;9.960;2023-07-31T04:50:36;99709.56;;;14.25;100.00
39443;BME280;25147;52.142;9.960;2023-07-31T04:53:04;99707.56;;;14.10;100.00
39443;BME280;25147;52.142;9.960;2023-07-31T04:55:31;99870.00;;;15.13;100.00
39443;BME280;25147;52.142;9.960;2023-07-31T04:57:58;99870.69;;;15.18;100.00
39443;BME280;25147;52.142;9.960;2023-07-31T05:00:25;99689.72;;;14.16;100.00
39443;BME280;25147;52.142;9.960;2023-07-31T05:02:52;99882.72;;;15.24;100.00
39443;BME280;25147;52.142;9.960;2023-07-31T05:05:19;99797.88;;;14.75;100.00
39443;BME280;25147;52.142;9.960;2023-07-31T05:07:48;99565.25;;;13.53;100.00
39443;BME280;25147;52.142;9.960;2023-07-31T05:10:17;99864.41;;;15.40;100.00
39443;BME280;25147;52.142;9.960;2023-07-31T05:12:44;99568.72;;;13.53;100.00
39443;BME280;25147;52.142;9.960;2023-07-31T05:15:10;99738.22;;;14.74;100.00
39443;BME280;25147;52.142;9.960;2023-07-31T05:17:37;99791.06;;;14.90;100.00
39443;BME280;25147;52.142;9.960;2023-07-31T05:20:06;99622.59;;;14.06;100.00
39443;BME280;25147;52.142;9.960;2023-07-31T05:22:33;99716.41;;;14.70;100.00
39443;BME280;25147;52.142;9.960;2023-07-31T05:25:00;99854.66;;;15.61;100.00
39443;BME280;25147;52.142;9.960;2023-07-31T05:27:30;99484.94;;;13.46;100.00
39443;BME280;25147;52.142;9.960;2023-07-31T05:30:01;99682.47;;;14.62;100.00
39443;BME280;25147;52.142;9.960;2023-07-31T05:32:28;99775.81;;;15.17;100.00
39443;BME280;25147;52.142;9.960;2023-07-31T05:34:55;99898.69;;;15.60;100.00
39443;BME280;25147;52.142;9.960;2023-07-31T05:37:23;99846.41;;;15.69;100.00
39443;BME280;25147;52.142;9.960;2023-07-31T05:39:51;99265.91;;;12.23;100.00
39443;BME280;25147;52.142;9.960;2023-07-31T05:42:20;99871.69;;;15.74;100.00
39443;BME280;25147;52.142;9.960;2023-07-31T05:44:49;99549.97;;;14.02;100.00
39443;BME280;25147;52.142;9.960;2023-07-31T05:47:16;99850.22;;;15.82;100.00
39443;BME280;25147;52.142;9.960;2023-07-31T05:49:44;99499.72;;;13.48;100.00
39443;BME280;25147;52.142;9.960;2023-07-31T05:52:11;99851.72;;;15.88;100.00
39443;BME280;25147;52.142;9.960;2023-07-31T05:54:38;99748.03;;;14.89;100.00
39443;BME280;25147;52.142;9.960;2023-07-31T05:57:05;99791.94;;;15.68;100.00
39443;BME280;25147;52.142;9.960;2023-07-31T05:59:32;99824.91;;;15.78;100.00
39443;BME280;25147;52.142;9.960;2023-07-31T06:02:00;99765.03;;;15.40;100.00
39443;BME280;25147;52.142;9.960;2023-07-31T06:04:27;99830.31;;;15.75;100.00
39443;BME280;25147;52.142;9.960;2023-07-31T06:06:54;99534.41;;;14.16;100.00
39443;BME280;25147;52.142;9.960;2023-07-31T06:09:21;99865.84;;;15.87;100.00
39443;BME280;25147;52.142;9.960;2023-07-31T06:11:48;99843.50;;;15.94;100.00
39443;BME280;25147;52.142;9.960;2023-07-31T06:14:19;99556.34;;;14.17;100.00
39443;BME280;25147;52.142;9.960;2023-07-31T06:16:46;99535.34;;;14.15;100.00
39443;BME280;25147;52.142;9.960;2023-07-31T06:19:15;99668.97;;;14.89;100.00
39443;BME280;25147;52.142;9.960;2023-07-31T06:21:41;99772.38;;;15.53;100.00
39443;BME280;25147;52.142;9.960;2023-07-31T06:24:09;99841.38;;;16.02;100.00
39443;BME280;25147;52.142;9.960;2023-07-31T06:26:37;99336.34;;;12.96;100.00
39443;BME280;25147;52.142;9.960;2023-07-31T06:29:08;99862.69;;;15.97;100.00
39443;BME280;25147;52.142;9.960;2023-07-31T06:31:35;99331.50;;;12.87;100.00
39443;BME280;25147;52.142;9.960;2023-07-31T06:34:02;99577.09;;;14.43;100.00
39443;BME280;25147;52.142;9.960;2023-07-31T06:36:30;99411.16;;;13.49;100.00
39443;BME280;25147;52.142;9.960;2023-07-31T06:38:57;99640.66;;;14.94;100.00
39443;BME280;25147;52.142;9.960;2023-07-31T06:41:24;99863.03;;;16.09;100.00
39443;BME280;25147;52.142;9.960;2023-07-31T06:43:51;99679.25;;;15.14;100.00
39443;BME280;25147;52.142;9.960;2023-07-31T06:46:18;99436.69;;;13.65;100.00
39443;BME280;25147;52.142;9.960;2023-07-31T06:48:45;99370.69;;;13.32;100.00
39443;BME280;25147;52.142;9.960;2023-07-31T06:51:12;99836.16;;;16.18;100.00
39443;BME280;25147;52.142;9.960;2023-07-31T06:53:42;99727.97;;;15.43;100.00
39443;BME280;25147;52.142;9.960;2023-07-31T06:56:10;99657.16;;;15.17;100.00
39443;BME280;25147;52.142;9.960;2023-07-31T06:58:37;99596.78;;;14.74;100.00
39443;BME280;25147;52.142;9.960;2023-07-31T07:01:04;99624.84;;;14.94;100.00
39443;BME280;25147;52.142;9.960;2023-07-31T07:03:32;99834.16;;;16.23;100.00
39443;BME280;25147;52.142;9.960;2023-07-31T07:05:59;99786.81;;;16.01;100.00
39443;BME280;25147;52.142;9.960;2023-07-31T07:08:26;99740.50;;;15.76;100.00
39443;BME280;25147;52.142;9.960;2023-07-31T07:10:54;99561.31;;;14.62;100.00
39443;BME280;25147;52.142;9.960;2023-07-31T07:13:21;99810.50;;;16.39;100.00
39443;BME280;25147;52.142;9.960;2023-07-31T07:15:49;99807.16;;;16.35;100.00
39443;BME280;25147;52.142;9.960;2023-07-31T07:18:17;99843.44;;;16.49;100.00
39443;BME280;25147;52.142;9.960;2023-07-31T07:20:46;99684.38;;;15.73;100.00
39443;BME280;25147;52.142;9.960;2023-07-31T07:23:13;99754.47;;;16.15;100.00
39443;BME280;25147;52.142;9.960;2023-07-31T07:25:40;99645.53;;;15.57;100.00
39443;BME280;25147;52.142;9.960;2023-07-31T07:28:09;99296.75;;;13.59;100.00
39443;BME280;25147;52.142;9.960;2023-07-31T07:30:36;99624.50;;;15.56;100.00
39443;BME280;25147;52.142;9.960;2023-07-31T07:33:04;99810.03;;;16.65;100.00
39443;BME280;25147;52.142;9.960;2023-07-31T07:35:33;99515.34;;;14.87;100.00
39443;BME280;25147;52.142;9.960;2023-07-31T07:38:01;99337.91;;;13.79;100.00
39443;BME280;25147;52.142;9.960;2023-07-31T07:40:28;99553.91;;;15.07;100.00
39443;BME280;25147;52.142;9.960;2023-07-31T07:42:55;99823.47;;;16.78;100.00
39443;BME280;25147;52.142;9.960;2023-07-31T07:45:26;99492.09;;;14.78;100.00
39443;BME280;25147;52.142;9.960;2023-07-31T07:47:53;99740.31;;;16.16;100.00
39443;BME280;25147;52.142;9.960;2023-07-31T07:50:20;99765.34;;;16.26;100.00
39443;BME280;25147;52.142;9.960;2023-07-31T07:52:47;99832.25;;;16.61;100.00
39443;BME280;25147;52.142;9.960;2023-07-31T07:55:14;99560.38;;;14.82;100.00
39443;BME280;25147;52.142;9.960;2023-07-31T07:57:41;99591.16;;;14.82;100.00
39443;BME280;25147;52.142;9.960;2023-07-31T08:00:10;99865.00;;;16.59;100.00
39443;BME280;25147;52.142;9.960;2023-07-31T08:02:39;99404.09;;;13.89;100.00
39443;BME280;25147;52.142;9.960;2023-07-31T08:05:06;99691.06;;;15.61;100.00
39443;BME280;25147;52.142;9.960;2023-07-31T08:07:34;99749.56;;;15.90;100.00
39443;BME280;25147;52.142;9.960;2023-07-31T08:10:01;99709.06;;;15.53;100.00
39443;BME280;25147;52.142;9.960;2023-07-31T08:12:28;99844.38;;;16.48;100.00
39443;BME280;25147;52.142;9.960;2023-07-31T08:14:55;99855.97;;;16.45;100.00
39443;BME280;25147;52.142;9.960;2023-07-31T08:17:22;99848.47;;;16.36;100.00
39443;BME280;25147;52.142;9.960;2023-07-31T08:19:51;99835.75;;;16.44;100.00
39443;BME280;25147;52.142;9.960;2023-07-31T08:22:18;99683.63;;;15.52;100.00
39443;BME280;25147;52.142;9.960;2023-07-31T08:24:45;99618.25;;;15.03;100.00
39443;BME280;25147;52.142;9.960;2023-07-31T08:27:12;99769.06;;;16.04;100.00
39443;BME280;25147;52.142;9.960;2023-07-31T08:29:39;99786.00;;;16.18;100.00
39443;BME280;25147;52.142;9.960;2023-07-31T08:32:06;99682.47;;;15.57;100.00
39443;BME280;25147;52.142;9.960;2023-07-31T08:34:33;99660.78;;;15.33;100.00
39443;BME280;25147;52.142;9.960;2023-07-31T08:37:06;99821.78;;;16.42;100.00
39443;BME280;25147;52.142;9.960;2023-07-31T08:39:33;99387.53;;;13.87;100.00
39443;BME280;25147;52.142;9.960;2023-07-31T08:42:00;99754.78;;;16.09;100.00
39443;BME280;25147;52.142;9.960;2023-07-31T08:44:27;99840.34;;;16.58;100.00
39443;BME280;25147;52.142;9.960;2023-07-31T08:46:56;99820.69;;;16.47;100.00
39443;BME280;25147;52.142;9.960;2023-07-31T08:49:23;99845.25;;;16.49;100.00
39443;BME280;25147;52.142;9.960;2023-07-31T08:51:50;99745.72;;;15.95;100.00
39443;BME280;25147;52.142;9.960;2023-07-31T08:54:20;99825.44;;;16.57;100.00
39443;BME280;25147;52.142;9.960;2023-07-31T08:56:47;99824.66;;;16.55;100.00
39443;BME280;25147;52.142;9.960;2023-07-31T08:59:15;99789.56;;;16.34;100.00
39443;BME280;25147;52.142;9.960;2023-07-31T09:01:49;99779.47;;;16.25;100.00
39443;BME280;25147;52.142;9.960;2023-07-31T09:04:18;99807.25;;;16.51;100.00
39443;BME280;25147;52.142;9.960;2023-07-31T09:06:47;99740.41;;;16.14;100.00
39443;BME280;25147;52.142;9.960;2023-07-31T09:09:15;99483.22;;;14.61;100.00
39443;BME280;25147;52.142;9.960;2023-07-31T09:11:43;99824.19;;;16.47;100.00
39443;BME280;25147;52.142;9.960;2023-07-31T09:14:10;99687.50;;;15.81;100.00
39443;BME280;25147;52.142;9.960;2023-07-31T09:16:51;99634.88;;;15.41;100.00
39443;BME280;25147;52.142;9.960;2023-07-31T09:19:25;99626.66;;;15.48;100.00
39443;BME280;25147;52.142;9.960;2023-07-31T09:21:52;99796.19;;;16.43;100.00
39443;BME280;25147;52.142;9.960;2023-07-31T09:24:26;99797.91;;;16.44;100.00
39443;BME280;25147;52.142;9.960;2023-07-31T09:26:55;99703.72;;;15.91;100.00
39443;BME280;25147;52.142;9.960;2023-07-31T09:29:22;99766.69;;;16.35;100.00
39443;BME280;25147;52.142;9.960;2023-07-31T09:31:50;99766.69;;;16.35;100.00
39443;BME280;25147;52.142;9.960;2023-07-31T09:34:20;99637.44;;;15.60;100.00
39443;BME280;25147;52.142;9.960;2023-07-31T09:36:52;99790.59;;;16.49;100.00
39443;BME280;25147;52.142;9.960;2023-07-31T09:39:22;99352.13;;;13.56;100.00
39443;BME280;25147;52.142;9.960;2023-07-31T09:41:55;99861.09;;;16.49;100.00
39443;BME280;25147;52.142;9.960;2023-07-31T09:44:37;99763.22;;;16.50;100.00
39443;BME280;25147;52.142;9.960;2023-07-31T09:47:22;99471.38;;;14.70;100.00
39443;BME280;25147;52.142;9.960;2023-07-31T09:49:50;99574.34;;;15.38;100.00
39443;BME280;25147;52.142;9.960;2023-07-31T09:52:17;99774.25;;;16.58;100.00
39443;BME280;25147;52.142;9.960;2023-07-31T09:54:46;99766.34;;;16.58;100.00
39443;BME280;25147;52.142;9.960;2023-07-31T09:57:16;99760.06;;;16.61;100.00
39443;BME280;25147;52.142;9.960;2023-07-31T09:59:46;99341.78;;;14.08;100.00
39443;BME280;25147;52.142;9.960;2023-07-31T10:02:15;99739.56;;;16.49;100.00
39443;BME280;25147;52.142;9.960;2023-07-31T10:04:45;99762.47;;;16.65;100.00
39443;BME280;25147;52.142;9.960;2023-07-31T10:07:17;99751.25;;;16.60;100.00
39443;BME280;25147;52.142;9.960;2023-07-31T10:09:45;99540.00;;;15.40;100.00
39443;BME280;25147;52.142;9.960;2023-07-31T10:12:14;99767.25;;;16.75;100.00
39443;BME280;25147;52.142;9.960;2023-07-31T10:14:44;99759.09;;;16.79;100.00
39443;BME280;25147;52.142;9.960;2023-07-31T10:17:12;99673.75;;;16.27;100.00
39443;BME280;25147;52.142;9.960;2023-07-31T10:19:40;99392.44;;;14.50;100.00
39443;BME280;25147;52.142;9.960;2023-07-31T10:22:08;99731.78;;;16.79;100.00
39443;BME280;25147;52.142;9.960;2023-07-31T10:24:36;99466.38;;;15.18;100.00
39443;BME280;25147;52.142;9.960;2023-07-31T10:27:10;99262.03;;;14.06;100.00
39443;BME280;25147;52.142;9.960;2023-07-31T10:29:39;99738.09;;;16.94;100.00
39443;BME280;25147;52.142;9.960;2023-07-31T10:32:07;99378.31;;;14.87;100.00
39443;BME280;25147;52.142;9.960;2023-07-31T10:34:39;99298.66;;;14.47;100.00
39443;BME280;25147;52.142;9.960;2023-07-31T10:37:22;99740.53;;;17.14;100.00
39443;BME280;25147;52.142;9.960;2023-07-31T10:40:00;99651.03;;;16.73;100.00
39443;BME280;25147;52.142;9.960;2023-07-31T10:42:32;99311.72;;;14.83;100.00
39443;BME280;25147;52.142;9.960;2023-07-31T10:45:03;99416.59;;;15.62;100.00
39443;BME280;25147;52.142;9.960;2023-07-31T10:47:32;99727.63;;;17.56;100.00
39443;BME280;25147;52.142;9.960;2023-07-31T10:50:16;99730.72;;;17.64;100.00
39443;BME280;25147;52.142;9.960;2023-07-31T10:52:46;99641.56;;;17.18;100.00
39443;BME280;25147;52.142;9.960;2023-07-31T10:55:26;99723.03;;;17.75;100.00
39443;BME280;25147;52.142;9.960;2023-07-31T10:57:53;99691.97;;;17.63;100.00
39443;BME280;25147;52.142;9.960;2023-07-31T11:00:25;99720.63;;;17.87;100.00
39443;BME280;25147;52.142;9.960;2023-07-31T11:03:03;99730.03;;;17.92;100.00
39443;BME280;25147;52.142;9.960;2023-07-31T11:05:48;99718.22;;;17.98;100.00
39443;BME280;25147;52.142;9.960;2023-07-31T11:08:17;99682.72;;;17.86;100.00
39443;BME280;25147;52.142;9.960;2023-07-31T11:11:04;99477.03;;;16.65;100.00
39443;BME280;25147;52.142;9.960;2023-07-31T11:13:33;99450.34;;;16.54;100.00
39443;BME280;25147;52.142;9.960;2023-07-31T11:16:02;99559.63;;;17.17;100.00
39443;BME280;25147;52.142;9.960;2023-07-31T11:18:29;99647.16;;;17.74;100.00
39443;BME280;25147;52.142;9.960;2023-07-31T11:20:56;99469.13;;;16.81;100.00
39443;BME280;25147;52.142;9.960;2023-07-31T11:23:23;99531.66;;;17.13;100.00
39443;BME280;25147;52.142;9.960;2023-07-31T11:25:50;99629.59;;;17.73;100.00
39443;BME280;25147;52.142;9.960;2023-07-31T11:28:18;99696.63;;;18.20;100.00
39443;BME280;25147;52.142;9.960;2023-07-31T11:30:46;99432.44;;;16.59;100.00
39443;BME280;25147;52.142;9.960;2023-07-31T11:33:14;99692.75;;;18.25;100.00
39443;BME280;25147;52.142;9.960;2023-07-31T11:35:43;99421.97;;;16.58;100.00
39443;BME280;25147;52.142;9.960;2023-07-31T11:38:12;99525.28;;;17.31;100.00
39443;BME280;25147;52.142;9.960;2023-07-31T11:40:41;99697.13;;;18.41;100.00
39443;BME280;25147;52.142;9.960;2023-07-31T11:43:11;99301.94;;;16.16;100.00
39443;BME280;25147;52.142;9.960;2023-07-31T11:45:47;99536.00;;;17.44;100.00
39443;BME280;25147;52.142;9.960;2023-07-31T11:48:43;99308.94;;;16.17;100.00
39443;BME280;25147;52.142;9.960;2023-07-31T11:51:29;99705.34;;;18.81;100.00
39443;BME280;25147;52.142;9.960;2023-07-31T11:54:10;99668.97;;;18.83;100.00
39443;BME280;25147;52.142;9.960;2023-07-31T11:56:39;99673.78;;;18.91;100.00
39443;BME280;25147;52.142;9.960;2023-07-31T11:59:06;99628.88;;;18.73;100.00
39443;BME280;25147;52.142;9.960;2023-07-31T12:01:34;99662.16;;;18.79;100.00
39443;BME280;25147;52.142;9.960;2023-07-31T12:04:02;99579.19;;;18.62;100.00
39443;BME280;25147;52.142;9.960;2023-07-31T12:06:33;99658.78;;;19.18;100.00
39443;BME280;25147;52.142;9.960;2023-07-31T12:09:03;99581.25;;;18.86;100.00
39443;BME280;25147;52.142;9.960;2023-07-31T12:11:30;99652.53;;;19.19;100.00
39443;BME280;25147;52.142;9.960;2023-07-31T12:13:57;99663.06;;;19.48;100.00
39443;BME280;25147;52.142;9.960;2023-07-31T12:16:44;99658.38;;;19.52;99.29
39443;BME280;25147;52.142;9.960;2023-07-31T12:19:12;99656.78;;;19.49;99.15
39443;BME280;25147;52.142;9.960;2023-07-31T12:21:39;99388.88;;;17.84;99.47
39443;BME280;25147;52.142;9.960;2023-07-31T12:24:06;99408.75;;;17.92;100.00
39443;BME280;25147;52.142;9.960;2023-07-31T12:26:34;99652.22;;;19.24;100.00
39443;BME280;25147;52.142;9.960;2023-07-31T12:29:01;99517.34;;;18.62;100.00
39443;BME280;25147;52.142;9.960;2023-07-31T12:31:28;99542.88;;;18.92;100.00
39443;BME280;25147;52.142;9.960;2023-07-31T12:33:55;99533.84;;;18.94;99.92
39443;BME280;25147;52.142;9.960;2023-07-31T12:36:24;99658.81;;;19.73;99.77
39443;BME280;25147;52.142;9.960;2023-07-31T12:38:52;99520.81;;;18.77;98.85
39443;BME280;25147;52.142;9.960;2023-07-31T12:41:19;99669.06;;;19.64;99.58
39443;BME280;25147;52.142;9.960;2023-07-31T12:43:46;99650.88;;;19.58;99.56
39443;BME280;25147;52.142;9.960;2023-07-31T12:46:13;99325.81;;;17.62;100.00
39443;BME280;25147;52.142;9.960;2023-07-31T12:48:40;99398.59;;;17.98;100.00
39443;BME280;25147;52.142;9.960;2023-07-31T12:51:08;99640.94;;;19.48;100.00
39443;BME280;25147;52.142;9.960;2023-07-31T12:53:36;99581.72;;;19.20;100.00
39443;BME280;25147;52.142;9.960;2023-07-31T12:56:03;99558.44;;;19.11;100.00
39443;BME280;25147;52.142;9.960;2023-07-31T12:58:30;99656.09;;;19.87;100.00